Time;durP1;ratioP1;P1;durP2;ratioP2;P2;SDS_P1;SDS_P2;PMS_P1;PMS_P2;Temp;Humidity;BMP_temperature;BMP_pressure;BME280_temperature;BME280_humidity;BME280_pressure;Samples;Min_cycle;Max_cycle;Signal;HPM_P1;HPM_P2
2023/04/16 00:02:11;;;;;;;28.52;19.80;;;;;;;8.39;100.00;100763.19;6112145;28;20990;-88
2023/04/16 00:05:13;;;;;;;31.20;19.67;;;;;;;8.43;100.00;100774.16;6126122;28;20071;-88
2023/04/16 00:08:15;;;;;;;28.88;18.55;;;;;;;8.49;100.00;100769.41;6138378;28;20040;-88
2023/04/16 00:11:17;;;;;;;27.33;18.35;;;;;;;8.49;100.00;100774.56;6123290;28;20437;-88
2023/04/16 00:14:19;;;;;;;26.60;18.80;;;;;;;8.56;100.00;100775.00;6132289;28;20629;-89
2023/04/16 00:17:20;;;;;;;29.25;19.42;;;;;;;8.62;100.00;100769.41;6116540;28;20039;-89
2023/04/16 00:20:22;;;;;;;29.15;19.80;;;;;;;8.55;100.00;100773.34;6124631;28;20043;-88
2023/04/16 00:23:24;;;;;;;29.27;19.52;;;;;;;8.49;100.00;100768.59;6132654;28;20557;-88
2023/04/16 00:26:26;;;;;;;32.42;20.13;;;;;;;8.47;100.00;100765.28;6108997;28;20881;-89
2023/04/16 00:29:29;;;;;;;31.30;20.02;;;;;;;8.51;100.00;100759.00;6132967;28;20101;-88
2023/04/16 00:32:31;;;;;;;31.67;20.58;;;;;;;8.49;100.00;100766.00;6129028;28;20509;-88
2023/04/16 00:35:33;;;;;;;35.63;20.83;;;;;;;8.46;100.00;100767.03;6117953;28;20483;-89
2023/04/16 00:38:36;;;;;;;32.05;20.38;;;;;;;8.54;100.00;100763.94;6112409;28;20525;-89
2023/04/16 00:41:38;;;;;;;34.17;19.90;;;;;;;8.65;100.00;100771.00;6113929;28;20433;-89
2023/04/16 00:44:39;;;;;;;35.72;21.77;;;;;;;8.61;100.00;100758.28;6137434;28;20327;-89
2023/04/16 00:47:41;;;;;;;35.90;22.00;;;;;;;8.59;100.00;100767.88;6112752;28;20044;-89
2023/04/16 00:50:43;;;;;;;36.25;21.63;;;;;;;8.50;100.00;100775.41;6115785;28;20054;-88
2023/04/16 00:53:46;;;;;;;35.97;21.77;;;;;;;8.47;100.00;100775.59;6123309;28;20039;-88
2023/04/16 00:56:48;;;;;;;37.03;22.42;;;;;;;8.39;100.00;100776.94;6113017;28;20506;-89
2023/04/16 00:59:50;;;;;;;36.30;21.55;;;;;;;8.31;100.00;100786.06;6135197;28;20337;-89
2023/04/16 01:02:53;;;;;;;41.50;24.02;;;;;;;8.44;100.00;100786.13;6111899;28;20043;-89
2023/04/16 01:05:55;;;;;;;36.47;22.17;;;;;;;8.33;100.00;100782.47;6112995;29;20054;-88
2023/04/16 01:08:57;;;;;;;37.45;22.15;;;;;;;8.33;100.00;100777.31;6117685;28;20066;-88
2023/04/16 01:11:59;;;;;;;37.78;22.80;;;;;;;8.30;100.00;100790.41;6126410;28;20398;-88
2023/04/16 01:15:01;;;;;;;38.78;21.90;;;;;;;8.25;100.00;100789.88;6109659;28;20582;-88
2023/04/16 01:18:18;;;;;;;38.15;22.50;;;;;;;8.24;100.00;100797.72;6122682;28;20122;-88
2023/04/16 01:21:21;;;;;;;37.22;22.30;;;;;;;8.31;100.00;100804.94;6098154;28;20067;-89
2023/04/16 01:24:22;;;;;;;39.13;22.55;;;;;;;8.44;100.00;100810.16;6094927;28;20619;-89
2023/04/16 01:27:24;;;;;;;39.78;23.13;;;;;;;8.32;100.00;100809.19;6110867;28;20823;-88
2023/04/16 01:30:26;;;;;;;37.33;20.88;;;;;;;8.49;100.00;100810.69;6122639;28;20043;-89
2023/04/16 01:33:40;;;;;;;32.10;21.00;;;;;;;8.34;100.00;100811.66;6108380;28;20056;-89
2023/04/16 01:36:44;;;;;;;36.20;22.65;;;;;;;8.31;100.00;100810.09;6099435;28;20047;-88
2023/04/16 01:39:46;;;;;;;36.65;23.02;;;;;;;8.30;100.00;100808.47;6116125;28;20241;-88
2023/04/16 01:42:48;;;;;;;40.30;23.20;;;;;;;8.26;100.00;100809.59;6098065;29;20195;-89
2023/04/16 01:45:52;;;;;;;39.22;23.08;;;;;;;8.24;100.00;100813.19;6113599;28;20516;-89
2023/04/16 01:48:54;;;;;;;36.58;22.85;;;;;;;8.23;100.00;100817.53;6104405;28;20086;-89
2023/04/16 01:51:56;;;;;;;36.90;22.00;;;;;;;8.17;100.00;100823.06;6115132;28;20147;-88
2023/04/16 01:54:58;;;;;;;37.80;22.13;;;;;;;8.24;100.00;100819.16;6103499;28;20458;-89
2023/04/16 01:58:00;;;;;;;33.97;22.23;;;;;;;8.10;100.00;100825.22;6114540;28;20043;-89
2023/04/16 02:01:06;;;;;;;35.15;22.50;;;;;;;8.02;100.00;100824.03;6097159;28;20056;-88
2023/04/16 02:04:09;;;;;;;40.67;23.85;;;;;;;7.97;100.00;100827.75;6093936;29;20124;-88
2023/04/16 02:07:11;;;;;;;40.22;23.77;;;;;;;7.98;100.00;100813.94;6096738;28;20652;-88
2023/04/16 02:10:13;;;;;;;40.10;23.00;;;;;;;7.94;100.00;100821.94;6105895;28;20054;-88
2023/04/16 02:13:15;;;;;;;40.53;23.42;;;;;;;7.91;100.00;100820.41;6106705;28;20593;-88
2023/04/16 02:16:19;;;;;;;39.55;23.95;;;;;;;7.87;100.00;100818.09;6100576;28;20502;-88
2023/04/16 02:19:27;;;;;;;42.80;24.55;;;;;;;7.84;100.00;100826.84;6097214;28;20048;-88
2023/04/16 02:22:29;;;;;;;41.97;24.23;;;;;;;7.84;100.00;100824.28;6104366;28;20616;-88
2023/04/16 02:25:31;;;;;;;41.88;25.10;;;;;;;7.95;100.00;100832.19;6095485;28;20188;-88
2023/04/16 02:28:33;;;;;;;40.83;24.92;;;;;;;7.95;100.00;100832.19;6096124;28;20180;-88
2023/04/16 02:31:36;;;;;;;46.40;24.63;;;;;;;7.92;100.00;100834.91;6107620;28;20529;-88
2023/04/16 02:34:39;;;;;;;46.03;25.33;;;;;;;7.84;100.00;100832.00;6106833;28;20066;-88
2023/04/16 02:37:41;;;;;;;43.38;25.73;;;;;;;7.92;100.00;100828.94;6102862;28;20043;-88
2023/04/16 02:40:42;;;;;;;44.03;24.95;;;;;;;7.90;100.00;100831.63;6121855;28;20047;-88
2023/04/16 02:43:45;;;;;;;44.78;26.00;;;;;;;7.87;100.00;100836.97;6119532;28;20047;-88
2023/04/16 02:46:46;;;;;;;43.25;25.83;;;;;;;7.85;100.00;100840.56;6101812;28;20418;-89
2023/04/16 02:49:48;;;;;;;44.25;26.23;;;;;;;7.92;100.00;100840.06;6100376;28;20051;-89
2023/04/16 02:52:51;;;;;;;47.00;27.15;;;;;;;7.88;100.00;100843.78;6122963;28;20052;-88
2023/04/16 02:55:54;;;;;;;41.15;25.23;;;;;;;7.80;100.00;100848.59;6124313;28;20047;-89
2023/04/16 02:58:56;;;;;;;46.30;26.70;;;;;;;7.79;100.00;100862.41;6116387;28;20094;-88
2023/04/16 03:01:58;;;;;;;43.60;25.80;;;;;;;7.75;100.00;100864.34;6099216;28;20059;-88
2023/04/16 03:05:01;;;;;;;43.50;25.00;;;;;;;7.86;100.00;100861.09;6099685;28;20319;-89
2023/04/16 03:08:03;;;;;;;42.33;25.98;;;;;;;7.80;100.00;100856.34;6128680;28;20631;-88
2023/04/16 03:11:05;;;;;;;43.85;25.55;;;;;;;7.71;100.00;100869.78;6119987;28;20040;-88
2023/04/16 03:14:06;;;;;;;44.85;23.73;;;;;;;7.70;100.00;100873.25;6110287;28;20055;-89
2023/04/16 03:17:08;;;;;;;44.65;24.10;;;;;;;7.64;100.00;100861.59;6113984;28;20422;-89
2023/04/16 03:20:11;;;;;;;42.60;24.50;;;;;;;7.63;100.00;100875.41;6101680;28;20078;-88
2023/04/16 03:23:12;;;;;;;41.92;24.27;;;;;;;7.59;100.00;100870.53;6123733;28;20138;-88
2023/04/16 03:26:14;;;;;;;42.58;24.63;;;;;;;7.57;100.00;100872.38;6124983;28;20040;-89
2023/04/16 03:29:16;;;;;;;45.25;23.70;;;;;;;7.53;100.00;100871.72;6106967;28;20503;-88
2023/04/16 03:32:18;;;;;;;40.08;22.58;;;;;;;7.48;100.00;100866.84;6105814;28;20051;-88
2023/04/16 03:35:20;;;;;;;39.38;23.05;;;;;;;7.40;100.00;100866.47;6122433;28;20139;-88
2023/04/16 03:38:24;;;;;;;35.40;20.48;;;;;;;7.47;100.00;100867.75;6124588;28;20035;-88
2023/04/16 03:41:29;;;;;;;41.88;22.27;;;;;;;7.47;100.00;100869.50;6100609;28;20513;-88
2023/04/16 03:44:32;;;;;;;39.28;22.73;;;;;;;7.44;100.00;100873.09;6099727;28;20047;-88
2023/04/16 03:47:34;;;;;;;36.58;20.80;;;;;;;7.33;100.00;100870.34;6107507;28;20544;-88
2023/04/16 03:50:37;;;;;;;36.78;21.45;;;;;;;7.32;100.00;100873.84;6105949;28;20063;-89
2023/04/16 03:53:42;;;;;;;39.30;20.98;;;;;;;7.34;100.00;100877.16;6093654;28;20549;-88
2023/04/16 03:56:44;;;;;;;40.05;21.27;;;;;;;7.31;100.00;100872.19;6121868;28;20093;-88
2023/04/16 03:59:46;;;;;;;37.42;21.20;;;;;;;7.30;100.00;100878.25;6108017;28;20048;-88
2023/04/16 04:02:50;;;;;;;39.83;20.67;;;;;;;7.25;100.00;100878.50;6114199;28;20319;-88
2023/04/16 04:05:53;;;;;;;37.92;20.42;;;;;;;7.26;100.00;100879.38;6110523;29;20054;-88
2023/04/16 04:09:04;;;;;;;32.63;18.93;;;;;;;7.28;100.00;100880.09;6109329;28;20178;-89
2023/04/16 04:12:06;;;;;;;36.05;21.55;;;;;;;7.23;100.00;100879.53;6105576;28;20314;-88
2023/04/16 04:15:09;;;;;;;34.22;19.17;;;;;;;7.22;100.00;100883.03;6116253;28;20629;-88
2023/04/16 04:18:11;;;;;;;36.47;19.92;;;;;;;7.24;100.00;100888.94;6093903;28;20047;-88
2023/04/16 04:21:12;;;;;;;33.33;20.40;;;;;;;7.25;100.00;100893.13;6104289;28;20047;-88
2023/04/16 04:24:14;;;;;;;38.42;21.67;;;;;;;7.16;100.00;100898.84;6116166;28;20518;-89
2023/04/16 04:27:16;;;;;;;36.88;21.48;;;;;;;7.29;100.00;100897.19;6098514;28;20059;-88
2023/04/16 04:30:18;;;;;;;38.60;22.17;;;;;;;7.17;100.00;100910.78;6098042;29;20056;-88
2023/04/16 04:33:20;;;;;;;38.03;20.42;;;;;;;7.23;100.00;100913.00;6098060;29;20054;-88
2023/04/16 04:36:22;;;;;;;39.05;20.95;;;;;;;7.32;100.00;100908.13;6098242;28;20040;-88
2023/04/16 04:39:23;;;;;;;34.40;19.92;;;;;;;7.33;100.00;100907.22;6098643;29;20047;-89
2023/04/16 04:42:26;;;;;;;35.10;20.95;;;;;;;7.17;100.00;100914.19;6097583;28;20146;-88
2023/04/16 04:45:28;;;;;;;34.85;20.25;;;;;;;7.15;100.00;100920.34;6097851;28;20863;-88
2023/04/16 04:48:32;;;;;;;34.20;19.75;;;;;;;7.07;100.00;100921.63;6098197;28;20510;-88
2023/04/16 04:51:34;;;;;;;35.75;21.05;;;;;;;7.09;100.00;100917.22;6118692;28;20617;-88
2023/04/16 04:54:40;;;;;;;43.60;21.60;;;;;;;7.12;100.00;100932.47;6097094;28;20110;-88
2023/04/16 04:57:42;;;;;;;34.80;20.65;;;;;;;7.17;100.00;100933.97;6115778;28;20130;-88
2023/04/16 05:00:44;;;;;;;37.05;20.60;;;;;;;7.12;100.00;100929.06;6107864;28;20575;-88
2023/04/16 05:03:46;;;;;;;35.05;20.33;;;;;;;7.07;100.00;100934.50;6117482;28;20047;-89
2023/04/16 05:06:47;;;;;;;33.83;20.35;;;;;;;7.08;100.00;100943.88;6108490;28;20078;-88
2023/04/16 05:09:49;;;;;;;40.47;21.15;;;;;;;7.12;100.00;100945.34;6129828;28;20137;-88
2023/04/16 05:12:51;;;;;;;37.15;20.42;;;;;;;7.12;100.00;100945.34;6122483;28;20446;-88
2023/04/16 05:15:53;;;;;;;38.60;20.38;;;;;;;7.19;100.00;100942.44;6118261;28;20031;-89
2023/04/16 05:18:55;;;;;;;35.70;19.60;;;;;;;7.12;100.00;100950.50;6124033;28;20137;-88
2023/04/16 05:21:57;;;;;;;38.67;20.65;;;;;;;7.11;100.00;100954.00;6127649;28;20510;-88
2023/04/16 05:24:58;;;;;;;39.30;19.83;;;;;;;7.21;100.00;100956.88;6102412;28;20047;-88
2023/04/16 05:28:00;;;;;;;35.08;19.52;;;;;;;7.23;100.00;100959.34;6118696;28;20059;-88
2023/04/16 05:31:02;;;;;;;34.15;20.10;;;;;;;7.20;100.00;100952.63;6119463;28;20066;-88
2023/04/16 05:34:04;;;;;;;32.28;19.48;;;;;;;7.23;100.00;100949.91;6114133;28;20040;-88
2023/04/16 05:37:06;;;;;;;32.63;19.30;;;;;;;7.30;100.00;100952.91;6120708;28;20055;-88
2023/04/16 05:40:08;;;;;;;37.03;21.00;;;;;;;7.36;100.00;100959.47;6124029;28;20543;-88
2023/04/16 05:43:10;;;;;;;35.90;20.55;;;;;;;7.39;100.00;100967.03;6115632;28;20040;-88
2023/04/16 05:46:12;;;;;;;34.08;19.52;;;;;;;7.36;100.00;100968.03;6113555;28;20118;-88
2023/04/16 05:49:14;;;;;;;35.20;19.23;;;;;;;7.45;100.00;100975.22;6099167;28;20054;-88
2023/04/16 05:52:16;;;;;;;31.52;17.25;;;;;;;7.47;100.00;100980.28;6112532;28;20054;-88
2023/04/16 05:55:17;;;;;;;31.15;18.98;;;;;;;7.53;100.00;100985.91;6118250;28;20036;-88
2023/04/16 05:58:19;;;;;;;28.55;17.83;;;;;;;7.54;100.00;100987.53;6117249;28;20079;-88
2023/04/16 06:01:21;;;;;;;33.03;17.60;;;;;;;7.57;100.00;100998.59;6116639;28;20406;-88
2023/04/16 06:04:23;;;;;;;36.05;19.27;;;;;;;7.59;100.00;100991.59;6123324;28;20051;-88
2023/04/16 06:07:25;;;;;;;32.55;18.05;;;;;;;7.63;100.00;100995.66;6124425;28;20510;-88
2023/04/16 06:10:27;;;;;;;31.35;18.35;;;;;;;7.65;100.00;100997.25;6121560;28;20858;-88
2023/04/16 06:13:29;;;;;;;31.23;18.33;;;;;;;7.72;100.00;101002.84;6093315;28;20067;-88
2023/04/16 06:16:30;;;;;;;29.08;17.70;;;;;;;7.74;100.00;101001.00;6097288;28;20059;-88
2023/04/16 06:19:32;;;;;;;33.22;19.33;;;;;;;7.84;100.00;101003.84;6115931;28;20040;-87
2023/04/16 06:22:34;;;;;;;33.55;19.00;;;;;;;7.78;100.00;100997.34;6112974;28;20039;-88
2023/04/16 06:25:36;;;;;;;33.20;19.80;;;;;;;7.85;100.00;101000.34;6116007;28;20461;-88
2023/04/16 06:28:38;;;;;;;32.92;19.75;;;;;;;7.82;100.00;101005.69;6115731;28;20052;-88
2023/04/16 06:31:40;;;;;;;33.25;19.60;;;;;;;7.86;100.00;100997.69;6108959;28;20115;-87
2023/04/16 06:34:42;;;;;;;37.00;21.27;;;;;;;7.88;100.00;101013.91;6113986;28;20050;-88
2023/04/16 06:37:44;;;;;;;35.97;19.75;;;;;;;7.95;100.00;101012.63;6114633;28;20044;-88
2023/04/16 06:40:48;;;;;;;32.67;21.25;;;;;;;7.90;100.00;101012.06;6117353;28;20047;-88
2023/04/16 06:43:50;;;;;;;32.65;19.48;;;;;;;7.94;100.00;101017.84;6130274;28;20085;-88
2023/04/16 06:46:51;;;;;;;31.38;18.85;;;;;;;7.98;100.00;101016.75;6107419;28;20062;-88
2023/04/16 06:49:53;;;;;;;30.83;19.35;;;;;;;8.03;100.00;101019.06;6099975;28;20043;-88
2023/04/16 06:52:55;;;;;;;33.60;18.88;;;;;;;8.04;100.00;101018.13;6118465;28;20126;-88
2023/04/16 06:55:57;;;;;;;31.02;18.35;;;;;;;8.11;100.00;101022.81;6120112;28;20353;-88
2023/04/16 06:58:59;;;;;;;30.67;18.60;;;;;;;8.11;100.00;101019.41;6118842;28;20239;-88
2023/04/16 07:02:01;;;;;;;30.58;17.63;;;;;;;8.14;100.00;101024.38;6129630;28;20134;-88
2023/04/16 07:05:03;;;;;;;29.58;17.40;;;;;;;8.14;100.00;101021.81;6125615;28;20076;-87
2023/04/16 07:08:05;;;;;;;30.35;17.75;;;;;;;8.19;100.00;101023.16;6115626;28;20044;-87
2023/04/16 07:11:07;;;;;;;32.00;18.55;;;;;;;8.27;100.00;101024.47;6126523;28;20142;-87
2023/04/16 07:14:09;;;;;;;31.13;18.70;;;;;;;8.47;100.00;101031.00;6120609;28;20058;-87
2023/04/16 07:17:11;;;;;;;29.33;18.10;;;;;;;8.58;100.00;101026.84;6125636;28;20043;-87
2023/04/16 07:20:13;;;;;;;32.00;18.02;;;;;;;8.70;100.00;101027.00;6122154;28;20420;-87
2023/04/16 07:23:15;;;;;;;31.52;17.58;;;;;;;8.76;100.00;101034.34;6133756;28;20587;-87
2023/04/16 07:26:16;;;;;;;28.38;17.45;;;;;;;8.83;100.00;101027.88;6126271;28;20679;-87
2023/04/16 07:29:18;;;;;;;28.55;17.60;;;;;;;8.94;100.00;101038.31;6130022;28;20592;-87
2023/04/16 07:32:21;;;;;;;29.25;17.58;;;;;;;9.04;100.00;101034.25;6127912;28;20050;-87
2023/04/16 07:35:23;;;;;;;29.67;18.25;;;;;;;9.11;100.00;101044.19;6100025;28;20220;-87
2023/04/16 07:38:25;;;;;;;29.25;18.08;;;;;;;9.10;100.00;101047.69;6124108;28;20047;-87
2023/04/16 07:41:28;;;;;;;26.38;17.63;;;;;;;9.13;100.00;101050.06;6121115;28;20549;-87
2023/04/16 07:44:30;;;;;;;28.55;18.02;;;;;;;9.18;100.00;101051.44;6105979;28;20098;-87
2023/04/16 07:47:32;;;;;;;24.98;17.42;;;;;;;9.10;100.00;101055.44;6099114;29;20134;-87
2023/04/16 07:50:35;;;;;;;31.75;18.23;;;;;;;8.98;100.00;101057.88;6119181;28;20038;-87
2023/04/16 07:53:37;;;;;;;27.08;16.58;;;;;;;9.01;100.00;101059.44;6125913;28;20048;-87
2023/04/16 07:56:38;;;;;;;28.00;16.10;;;;;;;8.98;100.00;101059.63;6138647;28;20125;-87
2023/04/16 07:59:40;;;;;;;26.33;17.90;;;;;;;9.00;100.00;101070.69;6105039;28;20234;-87
2023/04/16 08:02:42;;;;;;;27.70;17.23;;;;;;;8.94;100.00;101063.31;6132748;28;20529;-88
2023/04/16 08:05:45;;;;;;;27.10;16.45;;;;;;;9.04;100.00;101073.00;6134707;28;20070;-87
2023/04/16 08:08:46;;;;;;;27.33;17.00;;;;;;;9.22;100.00;101068.41;6120151;28;20039;-87
2023/04/16 08:11:48;;;;;;;22.08;14.98;;;;;;;9.43;100.00;101073.09;6125439;28;20130;-87
2023/04/16 08:14:51;;;;;;;21.17;15.27;;;;;;;9.49;100.00;101081.28;6121384;28;20899;-87
2023/04/16 08:17:53;;;;;;;28.48;14.82;;;;;;;9.53;100.00;101087.06;6120439;28;20494;-87
2023/04/16 08:20:55;;;;;;;25.33;15.82;;;;;;;9.53;100.00;101081.06;6130033;28;20043;-87
2023/04/16 08:23:57;;;;;;;23.42;14.80;;;;;;;9.58;100.00;101082.41;6130562;28;20494;-87
2023/04/16 08:26:58;;;;;;;27.92;15.32;;;;;;;9.68;100.00;101080.06;6126912;28;20214;-87
2023/04/16 08:30:18;;;;;;;21.75;15.05;;;;;;;9.71;100.00;101095.34;6120704;28;20047;-86
2023/04/16 08:33:20;;;;;;;25.00;15.57;;;;;;;9.64;100.00;101094.13;6115502;28;20040;-86
2023/04/16 08:36:22;;;;;;;27.75;15.45;;;;;;;9.76;100.00;101097.63;6122277;28;20063;-87
2023/04/16 08:39:24;;;;;;;27.02;15.23;;;;;;;9.78;100.00;101095.78;6121328;28;20126;-87
2023/04/16 08:42:36;;;;;;;26.52;15.15;;;;;;;9.85;100.00;101097.84;6126796;28;20054;-86
2023/04/16 08:45:40;;;;;;;24.55;14.95;;;;;;;10.06;100.00;101100.78;6124276;28;20078;-87
2023/04/16 08:48:48;;;;;;;22.95;15.60;;;;;;;10.11;100.00;101114.22;6116649;28;20052;-87
2023/04/16 08:51:52;;;;;;;23.40;14.98;;;;;;;10.13;100.00;101111.50;6126879;28;20042;-86
2023/04/16 08:55:14;;;;;;;27.05;15.23;;;;;;;10.43;100.00;101115.56;6122371;28;20125;-86
2023/04/16 08:58:23;;;;;;;25.73;15.80;;;;;;;10.37;100.00;101113.41;6126818;28;20107;-87
2023/04/16 09:01:25;;;;;;;24.25;16.38;;;;;;;10.29;100.00;101112.16;6129845;28;20072;-87
2023/04/16 09:04:28;;;;;;;24.98;15.48;;;;;;;10.24;100.00;101114.22;6108506;28;20051;-87
2023/04/16 09:07:31;;;;;;;24.42;14.57;;;;;;;10.16;100.00;101121.69;6132477;28;20406;-87
2023/04/16 09:10:33;;;;;;;26.42;15.25;;;;;;;10.05;100.00;101111.22;6133517;28;20612;-87
2023/04/16 09:13:36;;;;;;;25.65;16.83;;;;;;;10.21;100.00;101116.16;6136464;28;20046;-87
2023/04/16 09:16:39;;;;;;;24.90;16.48;;;;;;;10.26;100.00;101120.13;6115309;28;20048;-87
2023/04/16 09:19:41;;;;;;;25.85;16.05;;;;;;;10.03;100.00;101124.25;6127950;28;20048;-87
2023/04/16 09:22:45;;;;;;;24.67;15.65;;;;;;;9.84;100.00;101110.91;6120359;28;20035;-87
2023/04/16 09:25:47;;;;;;;25.35;16.70;;;;;;;9.70;100.00;101127.31;6118563;28;20044;-87
2023/04/16 09:28:51;;;;;;;27.65;16.23;;;;;;;9.53;100.00;101122.41;6134936;28;20077;-87
2023/04/16 09:32:08;;;;;;;23.63;14.98;;;;;;;9.56;100.00;101128.19;6131790;28;20050;-87
2023/04/16 09:35:09;;;;;;;24.60;16.23;;;;;;;9.61;100.00;101130.50;6101430;29;20051;-86
2023/04/16 09:38:12;;;;;;;25.65;15.95;;;;;;;9.60;100.00;101126.25;6118279;28;20305;-86
2023/04/16 09:41:17;;;;;;;26.58;16.13;;;;;;;9.55;100.00;101141.25;6099576;28;20044;-86
2023/04/16 09:44:20;;;;;;;26.77;16.52;;;;;;;9.54;100.00;101137.84;6114035;28;20044;-86
2023/04/16 09:47:24;;;;;;;27.60;17.00;;;;;;;9.48;100.00;101140.81;6105648;28;20051;-86
2023/04/16 09:50:26;;;;;;;30.70;17.85;;;;;;;9.42;100.00;101146.38;6126158;28;20051;-86
2023/04/16 09:53:30;;;;;;;26.75;16.85;;;;;;;9.51;100.00;101147.53;6120918;28;20054;-86
2023/04/16 09:56:32;;;;;;;29.08;18.00;;;;;;;9.43;100.00;101148.84;6109470;28;20040;-86
2023/04/16 09:59:35;;;;;;;26.50;16.98;;;;;;;9.37;100.00;101149.25;6133553;28;20500;-87
2023/04/16 10:02:40;;;;;;;23.50;16.42;;;;;;;9.32;100.00;101150.47;6130041;28;20051;-87
2023/04/16 10:05:43;;;;;;;28.48;16.67;;;;;;;9.30;100.00;101155.72;6103398;28;20047;-87
2023/04/16 10:08:59;;;;;;;30.50;16.27;;;;;;;9.31;100.00;101151.38;6128039;28;20047;-86
2023/04/16 10:12:01;;;;;;;29.67;16.98;;;;;;;9.32;100.00;101150.47;6117679;28;20502;-86
2023/04/16 10:15:03;;;;;;;27.35;18.08;;;;;;;9.44;100.00;101152.25;6115044;28;20055;-86
2023/04/16 10:18:06;;;;;;;26.95;16.52;;;;;;;9.46;100.00;101148.63;6119486;28;20434;-87
2023/04/16 10:21:11;;;;;;;27.63;17.30;;;;;;;9.51;100.00;101152.69;6126117;28;20163;-86
2023/04/16 10:24:16;;;;;;;26.50;17.40;;;;;;;9.48;100.00;101162.28;6123152;28;20044;-86
2023/04/16 10:27:18;;;;;;;25.40;17.75;;;;;;;9.47;100.00;101162.41;6135655;28;20059;-86
2023/04/16 10:30:21;;;;;;;25.58;17.08;;;;;;;9.52;100.00;101168.13;6126053;28;20527;-86
2023/04/16 10:33:26;;;;;;;26.63;17.27;;;;;;;9.45;100.00;101170.25;6127408;28;20051;-86
2023/04/16 10:36:29;;;;;;;27.25;18.33;;;;;;;9.52;100.00;101173.28;6108700;28;20043;-86
2023/04/16 10:39:36;;;;;;;29.58;18.98;;;;;;;9.55;100.00;101173.06;6126300;28;20469;-87
2023/04/16 10:42:37;;;;;;;29.92;18.88;;;;;;;9.52;100.00;101175.88;6125654;28;20125;-87
2023/04/16 10:45:39;;;;;;;32.92;20.05;;;;;;;9.45;100.00;101188.34;6108988;28;20051;-86
2023/04/16 10:48:41;;;;;;;35.90;22.27;;;;;;;9.22;100.00;101179.47;6135221;28;20046;-86
2023/04/16 10:51:59;;;;;;;29.58;19.38;;;;;;;9.09;100.00;101188.88;6131273;28;20090;-87
2023/04/16 10:55:01;;;;;;;30.05;19.25;;;;;;;8.99;100.00;101185.22;6119446;28;20048;-87
2023/04/16 10:58:26;;;;;;;32.38;19.73;;;;;;;8.89;100.00;101186.72;6121415;28;20465;-87
2023/04/16 11:01:35;;;;;;;30.63;19.17;;;;;;;8.83;100.00;101193.09;6108581;28;20047;-86
2023/04/16 11:04:39;;;;;;;29.65;18.88;;;;;;;8.84;100.00;101193.00;6129687;28;20047;-86
2023/04/16 11:07:46;;;;;;;31.05;19.52;;;;;;;8.82;100.00;101183.69;6115170;28;20607;-86
2023/04/16 11:10:50;;;;;;;33.45;20.30;;;;;;;8.90;100.00;101196.94;6120052;28;20047;-86
2023/04/16 11:13:55;;;;;;;33.67;20.55;;;;;;;8.88;100.00;101197.97;6137751;28;20090;-86
2023/04/16 11:16:57;;;;;;;29.08;19.50;;;;;;;8.88;100.00;101193.63;6108596;28;20067;-86
2023/04/16 11:19:58;;;;;;;33.15;19.85;;;;;;;8.96;100.00;101196.56;6134770;28;20047;-86
2023/04/16 11:23:01;;;;;;;32.47;18.92;;;;;;;9.02;100.00;101206.53;6132284;28;20044;-87
2023/04/16 11:26:02;;;;;;;33.67;18.33;;;;;;;8.91;100.00;101193.44;6119373;28;20054;-87
2023/04/16 11:29:16;;;;;;;30.45;18.48;;;;;;;8.88;100.00;101208.28;6134518;28;20040;-87
2023/04/16 11:32:23;;;;;;;31.77;20.17;;;;;;;8.97;100.00;101200.81;6108232;28;20530;-87
2023/04/16 11:35:26;;;;;;;31.42;19.75;;;;;;;9.02;100.00;101211.69;6128315;28;20646;-87
2023/04/16 11:38:39;;;;;;;33.28;19.23;;;;;;;8.96;100.00;101211.22;6121282;28;20131;-86
2023/04/16 11:41:51;;;;;;;32.45;19.45;;;;;;;8.97;100.00;101208.56;6133649;28;20051;-87
2023/04/16 11:44:54;;;;;;;29.70;19.90;;;;;;;8.88;100.00;101216.88;6118125;28;20054;-86
2023/04/16 11:47:56;;;;;;;33.05;20.13;;;;;;;8.76;100.00;101223.59;6122094;28;20098;-85
2023/04/16 11:50:58;;;;;;;32.72;21.13;;;;;;;8.77;100.00;101214.94;6128661;28;20069;-85
2023/04/16 11:54:01;;;;;;;34.92;20.25;;;;;;;8.82;100.00;101223.25;6119812;28;20146;-87
2023/04/16 11:57:05;;;;;;;32.92;21.25;;;;;;;8.82;100.00;101214.66;6103124;28;20051;-86
2023/04/16 12:00:10;;;;;;;33.95;20.88;;;;;;;8.81;100.00;101226.72;6115027;28;20134;-87
2023/04/16 12:03:14;;;;;;;32.28;20.48;;;;;;;8.95;100.00;101225.06;6117096;28;20043;-87
2023/04/16 12:06:16;;;;;;;34.60;20.00;;;;;;;9.12;100.00;101235.22;6132307;28;20569;-88
2023/04/16 12:09:26;;;;;;;34.05;20.55;;;;;;;9.18;100.00;101237.41;6116464;28;20099;-89
2023/04/16 12:12:30;;;;;;;35.92;21.58;;;;;;;9.24;100.00;101231.00;6131365;28;20055;-90
2023/04/16 12:15:46;;;;;;;34.28;21.42;;;;;;;9.35;100.00;101232.94;6138179;28;20046;-90
2023/04/16 12:18:59;;;;;;;32.95;19.75;;;;;;;9.52;100.00;101232.72;6125268;28;20243;-89
2023/04/16 12:22:01;;;;;;;32.35;20.35;;;;;;;9.48;100.00;101226.91;6123528;28;20209;-90
2023/04/16 12:25:06;;;;;;;39.17;20.85;;;;;;;9.41;100.00;101228.22;6104269;28;20040;-90
2023/04/16 12:28:09;;;;;;;33.90;21.50;;;;;;;9.32;100.00;101228.81;6126048;28;20573;-90
2023/04/16 12:31:11;;;;;;;33.42;20.05;;;;;;;9.25;100.00;101233.50;6116749;28;20141;-90
2023/04/16 12:34:14;;;;;;;32.38;20.02;;;;;;;9.22;100.00;101233.72;6125377;28;20594;-90
2023/04/16 12:37:16;;;;;;;31.88;19.83;;;;;;;9.17;100.00;101233.16;6109558;28;20039;-89
2023/04/16 12:40:17;;;;;;;30.88;19.13;;;;;;;9.14;100.00;101237.69;6133883;28;20633;-90
2023/04/16 12:43:20;;;;;;;30.48;18.98;;;;;;;9.17;100.00;101235.75;6125624;28;20054;-89
2023/04/16 12:46:22;;;;;;;33.33;20.08;;;;;;;9.20;100.00;101245.88;6114399;29;20126;-90
2023/04/16 12:49:24;;;;;;;30.33;19.20;;;;;;;9.21;100.00;101238.97;6108666;28;20438;-89
2023/04/16 12:52:26;;;;;;;32.22;20.38;;;;;;;9.25;100.00;101243.84;6137306;28;20560;-89
2023/04/16 12:55:27;;;;;;;30.83;19.48;;;;;;;9.33;100.00;101245.13;6129957;28;20059;-90
2023/04/16 12:58:29;;;;;;;30.80;20.08;;;;;;;9.32;100.00;101243.47;6102299;28;20083;-90
2023/04/16 13:01:34;;;;;;;28.90;17.73;;;;;;;9.34;100.00;101244.19;6127665;28;20678;-90
2023/04/16 13:04:37;;;;;;;31.10;19.40;;;;;;;9.32;100.00;101238.31;6134804;28;20056;-90
2023/04/16 13:07:40;;;;;;;29.63;18.98;;;;;;;9.41;100.00;101242.88;6119816;28;20044;-90
2023/04/16 13:10:42;;;;;;;33.00;20.15;;;;;;;9.45;100.00;101234.84;6130749;28;20191;-91
2023/04/16 13:13:44;;;;;;;32.85;20.42;;;;;;;9.65;100.00;101237.94;6120505;28;20394;-91
2023/04/16 13:16:46;;;;;;;31.38;20.08;;;;;;;9.79;100.00;101226.69;6121499;28;20411;-91
2023/04/16 13:19:48;;;;;;;29.15;18.30;;;;;;;10.05;100.00;101240.53;6126646;28;20059;-90
2023/04/16 13:22:50;;;;;;;31.23;19.60;;;;;;;10.37;100.00;101237.63;6106727;28;20058;-91
2023/04/16 13:25:52;;;;;;;29.00;17.88;;;;;;;10.59;100.00;101226.66;6114930;28;20051;-90
2023/04/16 13:28:54;;;;;;;27.45;18.00;;;;;;;10.85;100.00;101225.69;6113130;28;20533;-90
2023/04/16 13:31:56;;;;;;;30.88;18.73;;;;;;;11.21;100.00;101221.50;6122541;28;20151;-89
2023/04/16 13:34:58;;;;;;;28.85;18.27;;;;;;;11.64;100.00;101221.00;6097712;28;20459;-90
2023/04/16 13:38:00;;;;;;;27.30;17.45;;;;;;;11.82;100.00;101218.84;6127466;28;20047;-90
2023/04/16 13:41:03;;;;;;;27.40;18.85;;;;;;;12.15;100.00;101215.56;6113372;29;20047;-90
2023/04/16 13:44:05;;;;;;;25.52;17.73;;;;;;;12.25;100.00;101218.31;6114823;28;20039;-89
2023/04/16 13:47:07;;;;;;;28.08;17.48;;;;;;;12.62;100.00;101208.56;6098055;28;20106;-89
2023/04/16 13:50:09;;;;;;;23.58;16.02;;;;;;;12.75;100.00;101208.44;6119340;28;20326;-89
2023/04/16 13:53:12;;;;;;;27.95;17.27;;;;;;;12.79;100.00;101209.00;6119471;28;20054;-89